Time;durP1;ratioP1;P1;durP2;ratioP2;P2;SDS_P1;SDS_P2;PMS_P1;PMS_P2;Temp;Humidity;BMP_temperature;BMP_pressure;BME280_temperature;BME280_humidity;BME280_pressure;Samples;Min_cycle;Max_cycle;Signal;HPM_P1;HPM_P2
2022/03/03 00:00:10;;;;;;;29.70;12.18;;;;;;;;;;5022041;28;20164;-84
2022/03/03 00:02:36;;;;;;;23.17;12.75;;;;;;;;;;5017570;28;20037;-84
2022/03/03 00:05:03;;;;;;;23.13;12.80;;;;;;;;;;5016814;28;20026;-83
2022/03/03 00:07:29;;;;;;;24.00;12.35;;;;;;;;;;5017850;28;20049;-84
2022/03/03 00:09:55;;;;;;;25.50;11.45;;;;;;;;;;5017160;28;20029;-83
2022/03/03 00:12:21;;;;;;;27.70;11.95;;;;;;;;;;5016380;28;20498;-84
2022/03/03 00:14:47;;;;;;;21.70;10.77;;;;;;;;;;5017877;28;20084;-84
2022/03/03 00:17:13;;;;;;;24.42;11.20;;;;;;;;;;5015966;28;20078;-83
2022/03/03 00:19:40;;;;;;;20.45;10.65;;;;;;;;;;5016426;28;20022;-84
2022/03/03 00:22:06;;;;;;;23.38;10.68;;;;;;;;;;5016728;28;20022;-84
2022/03/03 00:24:33;;;;;;;24.35;11.18;;;;;;;;;;5017222;28;20029;-84
2022/03/03 00:26:59;;;;;;;24.40;11.75;;;;;;;;;;5017476;28;20026;-83
2022/03/03 00:29:25;;;;;;;23.80;11.35;;;;;;;;;;5015441;28;20502;-85
2022/03/03 00:31:51;;;;;;;19.48;11.10;;;;;;;;;;5016880;28;20052;-84
2022/03/03 00:34:17;;;;;;;21.20;10.93;;;;;;;;;;5017065;28;20022;-84
2022/03/03 00:36:43;;;;;;;23.58;11.55;;;;;;;;;;5016197;28;20104;-83
2022/03/03 00:39:09;;;;;;;22.30;11.48;;;;;;;;;;5014901;28;20036;-83
2022/03/03 00:41:35;;;;;;;22.95;11.50;;;;;;;;;;5016555;28;20474;-86
2022/03/03 00:44:01;;;;;;;20.70;11.18;;;;;;;;;;5017589;28;20029;-85
2022/03/03 00:46:27;;;;;;;26.17;13.07;;;;;;;;;;5005542;28;20038;-83
2022/03/03 00:48:55;;;;;;;26.25;12.93;;;;;;;;;;5004368;28;20022;-86
2022/03/03 00:51:21;;;;;;;27.27;12.23;;;;;;;;;;5017129;28;20040;-84
2022/03/03 00:53:49;;;;;;;21.88;11.85;;;;;;;;;;5015782;28;20041;-85
2022/03/03 00:56:16;;;;;;;24.85;12.45;;;;;;;;;;5016778;28;20025;-86
2022/03/03 00:58:42;;;;;;;26.35;12.23;;;;;;;;;;5017131;28;20037;-84
2022/03/03 01:01:08;;;;;;;20.45;11.95;;;;;;;;;;5014875;28;20026;-85
2022/03/03 01:03:34;;;;;;;22.65;11.70;;;;;;;;;;5016659;28;20056;-86
2022/03/03 01:06:00;;;;;;;23.33;11.60;;;;;;;;;;5016005;28;20033;-86
2022/03/03 01:08:26;;;;;;;24.33;10.60;;;;;;;;;;5016512;28;20078;-84
2022/03/03 01:10:54;;;;;;;21.70;11.95;;;;;;;;;;5016432;28;20049;-84
2022/03/03 01:13:21;;;;;;;27.40;12.43;;;;;;;;;;5016165;28;20037;-84
2022/03/03 01:15:47;;;;;;;24.42;12.25;;;;;;;;;;5015144;28;20033;-83
2022/03/03 01:18:13;;;;;;;25.10;12.20;;;;;;;;;;5016610;28;20057;-84
2022/03/03 01:20:39;;;;;;;24.92;11.93;;;;;;;;;;5016494;28;20033;-84
2022/03/03 01:23:06;;;;;;;21.65;12.32;;;;;;;;;;5017058;28;20485;-83
2022/03/03 01:25:32;;;;;;;22.77;11.95;;;;;;;;;;5015835;28;20075;-86
2022/03/03 01:27:58;;;;;;;20.73;11.73;;;;;;;;;;5016642;28;20081;-82
2022/03/03 01:30:24;;;;;;;22.00;11.20;;;;;;;;;;5018895;28;20044;-84
2022/03/03 01:32:50;;;;;;;25.95;11.75;;;;;;;;;;5016221;28;20029;-84
2022/03/03 01:35:16;;;;;;;24.83;11.25;;;;;;;;;;5016617;28;20446;-84
2022/03/03 01:37:42;;;;;;;21.50;11.07;;;;;;;;;;5016382;28;20054;-84
2022/03/03 01:40:08;;;;;;;22.40;10.90;;;;;;;;;;5021910;28;20105;-89
2022/03/03 01:42:34;;;;;;;24.58;11.50;;;;;;;;;;5015075;28;20034;-83
2022/03/03 01:45:00;;;;;;;22.42;11.52;;;;;;;;;;5011577;28;20029;-84
2022/03/03 01:47:27;;;;;;;21.30;11.30;;;;;;;;;;5009526;28;20026;-83
2022/03/03 01:49:55;;;;;;;21.98;11.40;;;;;;;;;;4993037;28;20117;-82
2022/03/03 01:52:21;;;;;;;25.52;11.45;;;;;;;;;;5009035;28;20027;-83
2022/03/03 01:54:47;;;;;;;23.60;11.88;;;;;;;;;;5014971;28;20057;-84
2022/03/03 01:57:15;;;;;;;23.98;11.65;;;;;;;;;;4993490;28;20034;-83
2022/03/03 01:59:41;;;;;;;22.48;10.98;;;;;;;;;;5009703;28;20031;-84
2022/03/03 02:02:11;;;;;;;25.35;11.27;;;;;;;;;;4994662;28;20372;-84
2022/03/03 02:04:40;;;;;;;20.65;11.52;;;;;;;;;;4995358;28;20114;-83
2022/03/03 02:07:10;;;;;;;23.50;11.77;;;;;;;;;;4995297;28;20038;-82
2022/03/03 02:09:36;;;;;;;19.40;10.88;;;;;;;;;;5010109;28;20038;-81
2022/03/03 02:12:02;;;;;;;21.30;11.57;;;;;;;;;;4995650;28;20030;-83
2022/03/03 02:14:28;;;;;;;22.35;10.82;;;;;;;;;;4997051;28;20053;-83
2022/03/03 02:16:55;;;;;;;23.33;12.23;;;;;;;;;;4998662;28;20042;-83
2022/03/03 02:19:21;;;;;;;20.45;10.68;;;;;;;;;;5001843;28;20026;-83
2022/03/03 02:21:51;;;;;;;24.30;11.52;;;;;;;;;;5006057;28;20041;-85
2022/03/03 02:24:20;;;;;;;21.15;11.38;;;;;;;;;;5004927;28;20030;-84
2022/03/03 02:26:49;;;;;;;23.42;12.05;;;;;;;;;;5002504;28;20118;-86
2022/03/03 02:29:16;;;;;;;19.92;10.98;;;;;;;;;;5022180;28;20406;-85
2022/03/03 02:31:44;;;;;;;22.42;11.52;;;;;;;;;;5009544;28;20022;-85
2022/03/03 02:34:10;;;;;;;26.10;12.02;;;;;;;;;;5006432;28;20443;-83
2022/03/03 02:36:36;;;;;;;25.02;10.70;;;;;;;;;;5005459;28;20035;-82
2022/03/03 02:39:03;;;;;;;19.75;10.75;;;;;;;;;;5006638;28;20023;-83
2022/03/03 02:41:29;;;;;;;21.02;11.40;;;;;;;;;;5005974;28;20067;-83
2022/03/03 02:43:56;;;;;;;23.33;11.93;;;;;;;;;;5012169;28;20037;-83
2022/03/03 02:46:23;;;;;;;24.38;11.75;;;;;;;;;;5028195;28;20060;-82
2022/03/03 02:48:48;;;;;;;21.55;12.25;;;;;;;;;;5013490;28;20030;-84
2022/03/03 02:51:15;;;;;;;24.35;12.60;;;;;;;;;;5009105;28;20140;-85
2022/03/03 02:53:41;;;;;;;28.80;12.30;;;;;;;;;;5010191;28;20026;-85
2022/03/03 02:56:07;;;;;;;22.35;11.65;;;;;;;;;;5020065;28;20054;-85
2022/03/03 02:58:34;;;;;;;28.50;13.38;;;;;;;;;;5043145;28;20521;-85
2022/03/03 03:01:00;;;;;;;25.38;11.90;;;;;;;;;;5039668;28;20040;-83
2022/03/03 03:03:26;;;;;;;23.20;12.88;;;;;;;;;;5025934;28;20602;-83
2022/03/03 03:05:52;;;;;;;25.98;12.07;;;;;;;;;;5040209;28;20061;-82
2022/03/03 03:08:18;;;;;;;22.67;11.60;;;;;;;;;;5027563;28;20034;-84
2022/03/03 03:10:44;;;;;;;24.15;11.98;;;;;;;;;;5042606;28;20034;-83
2022/03/03 03:13:12;;;;;;;24.67;11.82;;;;;;;;;;5029651;28;20477;-83
2022/03/03 03:15:38;;;;;;;20.40;11.73;;;;;;;;;;5029516;28;20086;-84
2022/03/03 03:18:11;;;;;;;23.83;12.02;;;;;;;;;;5028531;28;20029;-83
2022/03/03 03:20:38;;;;;;;21.30;11.65;;;;;;;;;;5028678;28;20060;-82
2022/03/03 03:23:04;;;;;;;24.45;12.88;;;;;;;;;;5028281;28;20029;-81
2022/03/03 03:25:30;;;;;;;21.92;11.88;;;;;;;;;;5027188;28;20022;-83
2022/03/03 03:27:56;;;;;;;26.98;13.85;;;;;;;;;;5028696;28;20050;-85
2022/03/03 03:30:22;;;;;;;23.55;12.70;;;;;;;;;;5028034;28;20049;-85
2022/03/03 03:32:48;;;;;;;26.80;12.48;;;;;;;;;;5028360;28;20022;-87
2022/03/03 03:35:14;;;;;;;28.10;13.70;;;;;;;;;;5021228;28;20030;-85
2022/03/03 03:37:40;;;;;;;25.45;13.50;;;;;;;;;;5020093;28;20223;-88
2022/03/03 03:40:07;;;;;;;25.80;13.52;;;;;;;;;;5020066;28;20094;-86
2022/03/03 03:42:33;;;;;;;27.55;13.43;;;;;;;;;;5018545;28;20504;-85
2022/03/03 03:45:00;;;;;;;27.05;12.20;;;;;;;;;;5019913;28;20090;-85
2022/03/03 03:47:26;;;;;;;22.45;10.90;;;;;;;;;;5018949;28;20130;-86
2022/03/03 03:49:52;;;;;;;22.33;11.48;;;;;;;;;;5019627;28;20368;-84
2022/03/03 03:52:18;;;;;;;23.58;12.55;;;;;;;;;;5018360;28;20043;-83
2022/03/03 03:54:44;;;;;;;22.55;11.40;;;;;;;;;;5018762;28;20026;-85
2022/03/03 03:57:10;;;;;;;23.25;11.88;;;;;;;;;;5000240;28;20019;-85
2022/03/03 03:59:39;;;;;;;25.70;12.18;;;;;;;;;;5002330;28;20053;-84
2022/03/03 04:02:05;;;;;;;22.60;12.38;;;;;;;;;;5000502;28;20023;-85
2022/03/03 04:04:34;;;;;;;21.30;12.65;;;;;;;;;;4999523;28;20030;-85
2022/03/03 04:07:34;;;;;;;25.23;12.73;;;;;;;;;;4999178;28;20034;-84
2022/03/03 04:10:09;;;;;;;24.92;12.18;;;;;;;;;;4995858;28;20549;-88
2022/03/03 04:12:35;;;;;;;24.25;12.02;;;;;;;;;;4998827;28;20090;-86
2022/03/03 04:18:14;;;;;;;;;;;;;;;;;;;;;
2022/03/03 04:23:34;;;;;;;23.35;12.80;;;;;;;;;;5017918;28;20041;-85
2022/03/03 04:26:00;;;;;;;27.95;14.38;;;;;;;;;;5015393;28;20026;-85
2022/03/03 04:31:31;;;;;;;25.15;12.65;;;;;;;;;;5020947;28;20030;-85
2022/03/03 04:33:57;;;;;;;22.10;11.75;;;;;;;;;;5016122;28;20030;-83
2022/03/03 04:36:23;;;;;;;24.73;11.80;;;;;;;;;;5017413;28;20030;-84
2022/03/03 04:39:10;;;;;;;21.80;11.75;;;;;;;;;;5079693;22;20110;-84
2022/03/03 04:41:36;;;;;;;22.98;11.93;;;;;;;;;;4976439;28;20047;-84
2022/03/03 04:47:06;;;;;;;25.45;11.77;;;;;;;;;;4978758;28;20029;-85
2022/03/03 04:52:42;;;;;;;31.80;14.52;;;;;;;;;;4978438;28;20073;-84
2022/03/03 04:55:45;;;;;;;32.80;14.93;;;;;;;;;;4978853;28;20027;-84
2022/03/03 04:58:31;;;;;;;;;;;;;;;;;;;;;
2022/03/03 05:01:14;;;;;;;29.65;14.15;;;;;;;;;;4976091;28;20130;-85
2022/03/03 05:03:40;;;;;;;29.58;14.75;;;;;;;;;;4959467;28;20038;-84
2022/03/03 05:12:23;;;;;;;30.45;14.32;;;;;;;;;;4921912;29;20079;-84
2022/03/03 05:18:53;;;;;;;18.80;9.60;;;;;;;;;;4954184;29;20041;-84
2022/03/03 05:21:19;;;;;;;30.03;14.87;;;;;;;;;;4923223;29;20528;-84
2022/03/03 05:27:57;;;;;;;28.17;12.90;;;;;;;;;;4913299;29;20394;-84
2022/03/03 05:30:23;;;;;;;24.40;12.23;;;;;;;;;;4912210;29;20047;-81
2022/03/03 05:32:52;;;;;;;26.60;12.68;;;;;;;;;;4972183;28;20115;-82
2022/03/03 05:35:55;;;;;;;29.15;14.63;;;;;;;;;;4977888;28;20046;-84
2022/03/03 05:38:40;;;;;;;31.45;15.27;;;;;;;;;;4976834;28;20062;-85
2022/03/03 05:41:08;;;;;;;30.83;15.18;;;;;;;;;;4976942;28;20035;-84
2022/03/03 05:50:17;;;;;;;22.95;12.55;;;;;;;;;;4935637;29;20091;-84
2022/03/03 05:59:12;;;;;;;26.10;13.43;;;;;;;;;;4916317;29;20096;-83
2022/03/03 06:08:06;;;;;;;24.92;12.82;;;;;;;;;;4960030;29;20083;-85
2022/03/03 06:10:33;;;;;;;36.70;13.48;;;;;;;;;;4964035;28;20038;-85
2022/03/03 06:13:06;;;;;;;27.10;14.23;;;;;;;;;;4977075;28;20499;-85
2022/03/03 06:24:58;;;;;;;29.27;14.85;;;;;;;;;;4980969;28;20122;-83
2022/03/03 06:27:24;;;;;;;32.13;16.05;;;;;;;;;;4978524;28;20378;-83
2022/03/03 06:29:50;;;;;;;31.20;15.32;;;;;;;;;;4980216;28;20442;-83
2022/03/03 06:32:16;;;;;;;25.52;13.38;;;;;;;;;;4998136;28;20037;-83
2022/03/03 06:34:42;;;;;;;29.90;13.13;;;;;;;;;;4988449;28;20060;-84
2022/03/03 06:37:08;;;;;;;24.17;12.57;;;;;;;;;;4980180;28;20034;-85
2022/03/03 06:39:34;;;;;;;32.00;13.90;;;;;;;;;;4978756;28;20098;-85
2022/03/03 06:42:00;;;;;;;27.63;13.98;;;;;;;;;;4980161;28;20037;-84
2022/03/03 06:44:26;;;;;;;26.02;13.48;;;;;;;;;;4979067;28;20023;-85
2022/03/03 06:46:52;;;;;;;28.73;13.68;;;;;;;;;;4978853;28;20058;-85
2022/03/03 06:49:18;;;;;;;28.65;13.98;;;;;;;;;;4999399;28;20471;-84
2022/03/03 06:51:47;;;;;;;29.98;13.27;;;;;;;;;;4999966;28;20065;-83
2022/03/03 06:54:15;;;;;;;24.20;13.23;;;;;;;;;;4988231;28;20031;-86
2022/03/03 06:56:51;;;;;;;29.08;12.63;;;;;;;;;;4968961;28;20042;-84
2022/03/03 06:59:18;;;;;;;23.80;13.57;;;;;;;;;;4970743;28;20019;-84
2022/03/03 07:01:47;;;;;;;27.38;14.00;;;;;;;;;;4979617;28;20027;-85
2022/03/03 07:04:14;;;;;;;28.70;14.57;;;;;;;;;;4980175;28;20379;-86
2022/03/03 07:06:40;;;;;;;35.05;14.45;;;;;;;;;;4978299;28;20401;-86
2022/03/03 07:09:09;;;;;;;28.90;14.52;;;;;;;;;;5014344;22;20037;-84
2022/03/03 07:11:42;;;;;;;38.83;14.90;;;;;;;;;;5059227;28;20136;-86
2022/03/03 07:14:12;;;;;;;28.35;14.82;;;;;;;;;;5066072;28;20020;-88
2022/03/03 07:16:41;;;;;;;36.22;14.95;;;;;;;;;;5056756;28;20025;-84
2022/03/03 07:19:21;;;;;;;27.48;13.98;;;;;;;;;;5057668;28;20153;-85
2022/03/03 07:22:07;;;;;;;27.45;14.05;;;;;;;;;;5057118;28;20024;-85
2022/03/03 07:24:46;;;;;;;33.38;13.90;;;;;;;;;;5051128;28;20037;-85
2022/03/03 07:27:23;;;;;;;31.67;15.38;;;;;;;;;;5061157;28;20032;-85
2022/03/03 07:30:08;;;;;;;29.40;15.35;;;;;;;;;;5058991;28;20129;-84
2022/03/03 07:32:46;;;;;;;30.20;16.35;;;;;;;;;;5044140;28;20049;-85
2022/03/03 07:35:14;;;;;;;29.60;14.68;;;;;;;;;;5042248;28;20040;-83
2022/03/03 07:37:48;;;;;;;29.88;14.50;;;;;;;;;;5046111;28;20021;-86
2022/03/03 07:40:15;;;;;;;29.70;15.43;;;;;;;;;;5044646;28;20489;-88
2022/03/03 07:42:41;;;;;;;30.02;15.23;;;;;;;;;;5043018;28;20044;-87
2022/03/03 07:45:07;;;;;;;26.73;14.88;;;;;;;;;;5043191;28;20424;-85
2022/03/03 07:47:44;;;;;;;25.65;15.40;;;;;;;;;;5045836;28;20017;-85
2022/03/03 07:50:22;;;;;;;24.25;14.55;;;;;;;;;;5043271;28;20078;-89
2022/03/03 07:52:52;;;;;;;29.40;14.18;;;;;;;;;;5044214;28;20028;-87
2022/03/03 07:55:18;;;;;;;25.13;14.07;;;;;;;;;;5047153;28;20099;-88
2022/03/03 07:58:04;;;;;;;24.13;13.93;;;;;;;;;;5061344;28;20031;-87
2022/03/03 08:00:35;;;;;;;19.85;12.35;;;;;;;;;;5056771;28;20112;-84
2022/03/03 08:03:06;;;;;;;21.67;11.50;;;;;;;;;;5058830;28;20025;-85
2022/03/03 08:05:32;;;;;;;26.42;12.30;;;;;;;;;;5061096;28;20037;-87
2022/03/03 08:08:01;;;;;;;20.75;11.70;;;;;;;;;;5038010;28;20110;-87
2022/03/03 08:10:27;;;;;;;20.05;12.80;;;;;;;;;;5039535;28;20034;-85
2022/03/03 08:12:56;;;;;;;21.38;12.85;;;;;;;;;;5039227;28;20021;-86
2022/03/03 08:15:27;;;;;;;21.73;13.32;;;;;;;;;;5039389;28;20052;-86
2022/03/03 08:17:55;;;;;;;21.88;12.65;;;;;;;;;;5055208;28;20013;-86
2022/03/03 08:20:22;;;;;;;20.23;13.05;;;;;;;;;;5059176;28;20028;-86
2022/03/03 08:22:48;;;;;;;22.88;12.88;;;;;;;;;;5054295;28;20457;-85
2022/03/03 08:25:14;;;;;;;20.90;12.63;;;;;;;;;;5056540;28;20174;-86
2022/03/03 08:27:40;;;;;;;24.30;13.32;;;;;;;;;;5056473;28;20485;-86
2022/03/03 08:30:07;;;;;;;22.60;13.43;;;;;;;;;;5053468;28;20033;-85
2022/03/03 08:32:40;;;;;;;20.45;12.80;;;;;;;;;;5035958;28;20033;-85
2022/03/03 08:35:14;;;;;;;21.48;12.93;;;;;;;;;;5041869;28;20033;-86
2022/03/03 08:37:42;;;;;;;26.52;12.13;;;;;;;;;;5049167;28;20022;-85
2022/03/03 08:40:10;;;;;;;21.30;12.48;;;;;;;;;;5058703;28;20021;-86
2022/03/03 08:42:41;;;;;;;17.27;10.80;;;;;;;;;;5040240;28;20026;-86
2022/03/03 08:45:08;;;;;;;;;;;;;;;;;;5050675;28;20025;-86
2022/03/03 08:47:34;;;;;;;19.08;11.90;;;;;;;;;;5050559;28;19996;-87
2022/03/03 08:50:04;;;;;;;20.90;12.63;;;;;;;;;;5036030;28;20025;-86
2022/03/03 08:52:30;;;;;;;19.98;11.68;;;;;;;;;;5036162;28;20129;-86
2022/03/03 08:54:56;;;;;;;23.58;12.13;;;;;;;;;;5043890;28;20068;-85
2022/03/03 08:57:22;;;;;;;24.73;13.27;;;;;;;;;;5037234;28;20029;-86
2022/03/03 08:59:48;;;;;;;26.90;12.63;;;;;;;;;;5044723;28;20546;-86
2022/03/03 09:02:20;;;;;;;20.05;13.10;;;;;;;;;;5053421;28;20021;-87
2022/03/03 09:04:46;;;;;;;21.00;13.70;;;;;;;;;;5060324;28;20025;-85
2022/03/03 09:07:13;;;;;;;19.35;13.35;;;;;;;;;;5035056;28;20481;-85
2022/03/03 09:09:39;;;;;;;24.30;13.23;;;;;;;;;;5045220;28;20093;-86
2022/03/03 09:12:05;;;;;;;17.80;12.63;;;;;;;;;;5044629;28;20028;-85
2022/03/03 09:14:31;;;;;;;24.95;13.40;;;;;;;;;;5051010;28;20092;-86
2022/03/03 09:16:57;;;;;;;28.83;14.15;;;;;;;;;;5049464;28;20259;-85
2022/03/03 09:19:23;;;;;;;24.42;14.32;;;;;;;;;;5044536;28;20138;-85
2022/03/03 09:21:49;;;;;;;19.52;13.45;;;;;;;;;;5048578;28;20075;-85
2022/03/03 09:24:16;;;;;;;23.10;13.85;;;;;;;;;;5045886;28;20053;-86
2022/03/03 09:26:42;;;;;;;17.70;13.27;;;;;;;;;;5048080;28;20041;-84
2022/03/03 09:29:08;;;;;;;24.30;14.23;;;;;;;;;;5057042;28;20092;-86
2022/03/03 09:31:34;;;;;;;22.50;14.75;;;;;;;;;;5063621;28;20063;-86
2022/03/03 09:34:00;;;;;;;24.00;14.68;;;;;;;;;;5060018;28;20025;-86
2022/03/03 09:36:26;;;;;;;18.45;13.93;;;;;;;;;;5053773;28;20409;-86
2022/03/03 09:38:52;;;;;;;21.92;15.43;;;;;;;;;;5056787;28;20478;-87
2022/03/03 09:41:18;;;;;;;21.48;14.25;;;;;;;;;;5055635;28;20029;-87
2022/03/03 09:43:44;;;;;;;23.70;14.80;;;;;;;;;;5054316;28;20025;-87
2022/03/03 09:46:10;;;;;;;25.23;14.25;;;;;;;;;;5056923;28;20103;-86
2022/03/03 09:48:36;;;;;;;27.25;14.73;;;;;;;;;;5040605;28;20048;-87
2022/03/03 09:51:02;;;;;;;22.15;13.82;;;;;;;;;;5036130;28;20061;-85
2022/03/03 09:53:28;;;;;;;19.05;13.90;;;;;;;;;;5035696;28;20049;-85
2022/03/03 09:55:54;;;;;;;22.95;15.43;;;;;;;;;;5045881;28;20388;-85
2022/03/03 09:58:20;;;;;;;21.50;14.38;;;;;;;;;;5057735;28;20101;-87
2022/03/03 10:00:46;;;;;;;23.58;15.90;;;;;;;;;;5057977;28;20021;-83
2022/03/03 10:03:14;;;;;;;21.50;13.85;;;;;;;;;;5056174;28;20168;-84
2022/03/03 10:05:47;;;;;;;24.15;15.35;;;;;;;;;;5056906;28;20028;-83
2022/03/03 10:08:23;;;;;;;25.58;15.65;;;;;;;;;;5056568;28;20025;-87
2022/03/03 10:10:50;;;;;;;24.85;15.43;;;;;;;;;;5057235;28;20059;-84
2022/03/03 10:13:18;;;;;;;26.67;17.20;;;;;;;;;;5057054;28;20392;-85
2022/03/03 10:15:45;;;;;;;22.58;14.45;;;;;;;;;;5056476;28;20051;-85
2022/03/03 10:18:13;;;;;;;27.23;15.48;;;;;;;;;;5040440;28;20446;-83
2022/03/03 10:20:45;;;;;;;24.73;13.85;;;;;;;;;;5036812;28;20167;-85
2022/03/03 10:23:11;;;;;;;26.88;15.07;;;;;;;;;;5035392;28;20469;-83
2022/03/03 10:25:39;;;;;;;24.55;15.27;;;;;;;;;;5036110;28;20041;-83
2022/03/03 10:28:25;;;;;;;21.60;15.10;;;;;;;;;;5040688;28;20033;-83
2022/03/03 10:30:57;;;;;;;23.23;14.45;;;;;;;;;;5041796;28;20044;-83
2022/03/03 10:33:28;;;;;;;30.13;15.45;;;;;;;;;;5052645;28;20112;-81
2022/03/03 10:35:59;;;;;;;25.05;15.50;;;;;;;;;;5053860;28;20028;-83
2022/03/03 10:38:25;;;;;;;24.47;14.90;;;;;;;;;;5055419;28;20798;-83
2022/03/03 10:40:51;;;;;;;22.92;15.13;;;;;;;;;;5053159;28;20103;-82
2022/03/03 10:43:17;;;;;;;31.10;16.30;;;;;;;;;;5048730;28;20025;-84
2022/03/03 10:46:02;;;;;;;26.90;15.50;;;;;;;;;;5049713;28;20033;-84
2022/03/03 10:48:33;;;;;;;27.92;14.30;;;;;;;;;;5041219;28;20048;-83
2022/03/03 10:51:00;;;;;;;21.95;15.05;;;;;;;;;;5032799;28;20036;-83
2022/03/03 10:53:27;;;;;;;22.02;15.52;;;;;;;;;;5033218;28;20033;-83
2022/03/03 10:56:06;;;;;;;24.88;15.02;;;;;;;;;;5046808;28;20061;-86
2022/03/03 10:58:45;;;;;;;23.58;14.40;;;;;;;;;;5053141;28;20338;-82
2022/03/03 11:01:11;;;;;;;24.70;15.20;;;;;;;;;;5051107;28;20493;-83
2022/03/03 11:03:39;;;;;;;21.02;14.82;;;;;;;;;;5059549;28;20045;-86
2022/03/03 11:06:05;;;;;;;24.58;15.25;;;;;;;;;;5064418;28;20461;-87
2022/03/03 11:08:31;;;;;;;23.50;14.45;;;;;;;;;;5066976;28;20033;-86
2022/03/03 11:10:57;;;;;;;23.88;15.48;;;;;;;;;;5066461;28;20095;-85
2022/03/03 11:13:23;;;;;;;21.38;14.60;;;;;;;;;;5067886;28;20108;-85
2022/03/03 11:15:51;;;;;;;24.15;14.40;;;;;;;;;;5064631;28;20025;-82
2022/03/03 11:18:18;;;;;;;24.13;15.35;;;;;;;;;;5040089;28;20018;-83
2022/03/03 11:20:46;;;;;;;22.10;14.80;;;;;;;;;;5037553;28;20022;-84
2022/03/03 11:23:12;;;;;;;22.02;14.88;;;;;;;;;;5040307;28;20057;-84
2022/03/03 11:25:39;;;;;;;23.02;15.13;;;;;;;;;;5037178;28;20049;-86
2022/03/03 11:28:15;;;;;;;21.83;15.30;;;;;;;;;;5037753;28;20028;-86
2022/03/03 11:30:45;;;;;;;21.80;14.82;;;;;;;;;;5046450;28;20017;-85
2022/03/03 11:33:17;;;;;;;24.02;16.02;;;;;;;;;;5057735;28;20013;-85
2022/03/03 11:35:48;;;;;;;24.83;15.80;;;;;;;;;;5053710;28;20095;-85
2022/03/03 11:38:14;;;;;;;20.70;15.20;;;;;;;;;;5049490;28;20021;-86
2022/03/03 11:40:50;;;;;;;24.33;16.08;;;;;;;;;;5060123;28;20035;-86
2022/03/03 11:43:16;;;;;;;25.23;17.10;;;;;;;;;;5064399;28;20029;-85
2022/03/03 11:45:49;;;;;;;23.52;16.15;;;;;;;;;;5064438;28;20036;-85
2022/03/03 11:48:16;;;;;;;30.98;15.73;;;;;;;;;;5051852;28;20056;-85
2022/03/03 11:50:47;;;;;;;22.13;15.07;;;;;;;;;;5037850;28;20025;-87
2022/03/03 11:53:15;;;;;;;25.30;16.05;;;;;;;;;;5035498;28;20029;-85
2022/03/03 11:55:44;;;;;;;21.42;15.07;;;;;;;;;;5040527;28;20032;-87
2022/03/03 11:58:10;;;;;;;23.40;16.10;;;;;;;;;;5054890;28;20024;-88
2022/03/03 12:00:41;;;;;;;24.60;15.50;;;;;;;;;;5054615;28;20048;-87
2022/03/03 12:03:07;;;;;;;;;;;;;;;;;;5055635;28;20082;-86
2022/03/03 12:05:35;;;;;;;22.52;15.65;;;;;;;;;;5054686;28;19909;-88
2022/03/03 12:08:13;;;;;;;25.48;16.83;;;;;;;;;;5054946;28;20055;-88
2022/03/03 12:10:57;;;;;;;25.75;15.10;;;;;;;;;;5053764;28;20048;-86
2022/03/03 12:13:26;;;;;;;27.38;16.77;;;;;;;;;;5051885;28;20063;-86
2022/03/03 12:16:34;;;;;;;24.73;15.30;;;;;;;;;;5052196;28;20094;-87
2022/03/03 12:19:03;;;;;;;27.20;16.73;;;;;;;;;;4989555;28;20073;-87
2022/03/03 12:21:37;;;;;;;25.20;16.27;;;;;;;;;;4976051;28;20081;-87
2022/03/03 12:24:17;;;;;;;23.95;15.13;;;;;;;;;;5019947;28;20112;-85
2022/03/03 12:26:55;;;;;;;22.73;15.95;;;;;;;;;;5037426;28;20388;-85
2022/03/03 12:29:32;;;;;;;26.67;15.48;;;;;;;;;;5036239;28;20032;-85
2022/03/03 12:31:58;;;;;;;23.00;14.88;;;;;;;;;;5048686;28;20044;-85
2022/03/03 12:34:25;;;;;;;23.73;15.25;;;;;;;;;;5037071;28;20025;-86
2022/03/03 12:36:55;;;;;;;24.50;15.57;;;;;;;;;;5051540;28;20075;-85
2022/03/03 12:39:21;;;;;;;22.03;15.30;;;;;;;;;;5043436;28;20078;-85
2022/03/03 12:41:47;;;;;;;26.08;15.57;;;;;;;;;;5060228;28;20260;-86
2022/03/03 12:44:14;;;;;;;26.92;15.93;;;;;;;;;;5057642;28;20339;-85
2022/03/03 12:46:44;;;;;;;27.67;16.13;;;;;;;;;;5052771;28;20032;-85
2022/03/03 12:49:11;;;;;;;25.05;14.98;;;;;;;;;;5064840;28;20025;-86
2022/03/03 12:51:44;;;;;;;28.10;16.00;;;;;;;;;;5051394;28;20140;-85
2022/03/03 12:54:10;;;;;;;25.02;15.07;;;;;;;;;;5052986;28;20107;-84
2022/03/03 12:56:36;;;;;;;23.08;14.07;;;;;;;;;;5046213;28;20060;-84
2022/03/03 12:59:07;;;;;;;28.02;15.15;;;;;;;;;;5047468;28;20079;-85
2022/03/03 13:01:34;;;;;;;20.15;13.85;;;;;;;;;;5053087;28;20448;-85
2022/03/03 13:04:04;;;;;;;21.30;14.50;;;;;;;;;;5052816;28;20064;-86
2022/03/03 13:06:33;;;;;;;22.55;13.30;;;;;;;;;;5052888;28;20021;-86
2022/03/03 13:09:00;;;;;;;25.02;14.43;;;;;;;;;;5054336;28;20025;-85
2022/03/03 13:11:29;;;;;;;26.90;15.07;;;;;;;;;;5054825;28;20025;-86
2022/03/03 13:13:58;;;;;;;21.92;14.48;;;;;;;;;;5054619;28;20040;-86
2022/03/03 13:16:26;;;;;;;20.52;13.70;;;;;;;;;;5051844;28;20055;-85
2022/03/03 13:18:53;;;;;;;24.35;14.38;;;;;;;;;;5032688;28;20017;-86
2022/03/03 13:21:21;;;;;;;27.67;13.43;;;;;;;;;;5033870;28;20044;-85
2022/03/03 13:23:50;;;;;;;25.02;13.80;;;;;;;;;;5031634;28;20084;-88
2022/03/03 13:26:23;;;;;;;19.83;13.63;;;;;;;;;;5033405;28;20026;-85
2022/03/03 13:28:52;;;;;;;22.05;14.10;;;;;;;;;;5032941;28;20025;-88
2022/03/03 13:31:19;;;;;;;26.38;13.60;;;;;;;;;;5047507;28;20025;-85
2022/03/03 13:33:52;;;;;;;20.45;13.45;;;;;;;;;;5057293;28;20047;-84
2022/03/03 13:36:23;;;;;;;20.60;13.65;;;;;;;;;;5056704;28;20029;-83
2022/03/03 13:38:50;;;;;;;20.77;13.40;;;;;;;;;;5056497;28;20028;-85
2022/03/03 13:41:24;;;;;;;20.27;13.07;;;;;;;;;;5055068;28;20025;-84
2022/03/03 13:43:51;;;;;;;20.77;13.13;;;;;;;;;;5055130;28;20084;-84
2022/03/03 13:46:32;;;;;;;19.67;12.85;;;;;;;;;;5057305;28;20078;-84
2022/03/03 13:48:58;;;;;;;;;;;;;;;;;;5055378;28;20025;-85
2022/03/03 13:51:24;;;;;;;19.08;13.30;;;;;;;;;;5056638;28;20000;-85
2022/03/03 13:54:03;;;;;;;21.52;12.50;;;;;;;;;;5055765;28;20032;-84
2022/03/03 13:56:33;;;;;;;23.20;13.63;;;;;;;;;;5044133;28;20032;-85
2022/03/03 13:59:05;;;;;;;17.90;12.70;;;;;;;;;;5035394;28;20116;-83
2022/03/03 14:01:33;;;;;;;21.65;13.38;;;;;;;;;;5034771;28;20122;-85
2022/03/03 14:04:09;;;;;;;20.52;13.43;;;;;;;;;;5036759;28;20021;-85
2022/03/03 14:06:38;;;;;;;21.75;12.80;;;;;;;;;;5036946;28;20026;-85
2022/03/03 14:09:04;;;;;;;19.80;12.30;;;;;;;;;;5037374;28;20192;-84
2022/03/03 14:11:30;;;;;;;17.25;11.50;;;;;;;;;;5035984;28;20037;-85
2022/03/03 14:13:57;;;;;;;18.73;12.38;;;;;;;;;;5036308;28;20029;-85
2022/03/03 14:16:25;;;;;;;17.52;12.38;;;;;;;;;;5035832;28;20064;-85
2022/03/03 14:18:51;;;;;;;16.85;12.05;;;;;;;;;;5036121;28;20029;-85
2022/03/03 14:21:18;;;;;;;18.40;12.70;;;;;;;;;;5035456;28;20029;-85
2022/03/03 14:23:44;;;;;;;15.18;11.32;;;;;;;;;;5034217;28;20021;-86
2022/03/03 14:26:11;;;;;;;18.35;12.27;;;;;;;;;;5034586;28;20049;-86
2022/03/03 14:28:37;;;;;;;17.05;12.02;;;;;;;;;;5036035;28;20128;-84
2022/03/03 14:31:03;;;;;;;19.92;12.82;;;;;;;;;;5034170;28;20492;-85
2022/03/03 14:33:30;;;;;;;16.25;12.43;;;;;;;;;;5033635;28;20030;-84
2022/03/03 14:35:57;;;;;;;20.23;12.30;;;;;;;;;;5034234;28;20029;-85
2022/03/03 14:38:24;;;;;;;17.45;12.35;;;;;;;;;;5035673;28;20044;-83
2022/03/03 14:40:50;;;;;;;19.60;12.52;;;;;;;;;;5038270;28;20025;-85
2022/03/03 14:43:17;;;;;;;19.35;13.73;;;;;;;;;;5038839;28;20025;-84
2022/03/03 14:45:43;;;;;;;18.80;13.65;;;;;;;;;;5047891;28;20045;-85
2022/03/03 14:48:09;;;;;;;18.02;13.30;;;;;;;;;;5037174;28;20112;-84
2022/03/03 14:50:35;;;;;;;22.27;14.73;;;;;;;;;;5036184;28;20116;-83
2022/03/03 14:53:03;;;;;;;17.30;12.57;;;;;;;;;;5036968;28;20021;-84
2022/03/03 14:55:30;;;;;;;18.50;13.38;;;;;;;;;;5038083;28;20061;-84
2022/03/03 14:57:56;;;;;;;24.17;14.23;;;;;;;;;;5035224;28;20017;-83
2022/03/03 15:00:22;;;;;;;18.95;13.73;;;;;;;;;;5036060;28;20051;-84
2022/03/03 15:02:48;;;;;;;17.80;13.20;;;;;;;;;;5039767;28;20389;-84
2022/03/03 15:05:14;;;;;;;22.88;13.95;;;;;;;;;;5036141;28;20021;-83
2022/03/03 15:07:40;;;;;;;20.05;13.75;;;;;;;;;;5037078;28;20022;-83
2022/03/03 15:10:07;;;;;;;21.20;13.52;;;;;;;;;;5036538;28;20051;-83
2022/03/03 15:12:33;;;;;;;19.10;13.75;;;;;;;;;;5037309;28;20100;-83
2022/03/03 15:14:59;;;;;;;21.70;15.40;;;;;;;;;;5037494;28;20028;-84
2022/03/03 15:17:25;;;;;;;27.98;16.85;;;;;;;;;;5049146;28;20377;-82
2022/03/03 15:19:51;;;;;;;25.23;16.70;;;;;;;;;;5058507;28;20021;-83
2022/03/03 15:22:17;;;;;;;25.40;17.42;;;;;;;;;;5058853;28;20055;-83
2022/03/03 15:24:44;;;;;;;24.05;16.33;;;;;;;;;;5058324;28;20203;-83
2022/03/03 15:27:10;;;;;;;24.15;16.73;;;;;;;;;;5058176;28;20074;-84